sensor_id;sensor_type;location;lat;lon;timestamp;temperature;humidity
18160;DHT22;9205;52.032;4.314;2022-10-29T00:02:20;15.10;99.90
18160;DHT22;9205;52.032;4.314;2022-10-29T00:04:48;14.90;99.90
18160;DHT22;9205;52.032;4.314;2022-10-29T00:07:15;15.10;99.90
18160;DHT22;9205;52.032;4.314;2022-10-29T00:09:43;15.00;99.90
18160;DHT22;9205;52.032;4.314;2022-10-29T00:12:10;15.00;99.90
18160;DHT22;9205;52.032;4.314;2022-10-29T00:14:37;15.10;99.90
18160;DHT22;9205;52.032;4.314;2022-10-29T00:17:04;15.00;99.90
18160;DHT22;9205;52.032;4.314;2022-10-29T00:19:31;15.10;99.90
18160;DHT22;9205;52.032;4.314;2022-10-29T00:22:00;14.90;99.90
18160;DHT22;9205;52.032;4.314;2022-10-29T00:24:27;14.90;99.90
18160;DHT22;9205;52.032;4.314;2022-10-29T00:26:55;15.00;99.90
18160;DHT22;9205;52.032;4.314;2022-10-29T00:29:22;14.80;99.90
18160;DHT22;9205;52.032;4.314;2022-10-29T00:31:49;15.00;99.90
18160;DHT22;9205;52.032;4.314;2022-10-29T00:34:16;15.00;99.90
18160;DHT22;9205;52.032;4.314;2022-10-29T00:36:44;14.80;99.90
18160;DHT22;9205;52.032;4.314;2022-10-29T00:39:14;15.00;99.90
18160;DHT22;9205;52.032;4.314;2022-10-29T00:41:42;14.80;99.90
18160;DHT22;9205;52.032;4.314;2022-10-29T00:44:28;14.90;99.90
18160;DHT22;9205;52.032;4.314;2022-10-29T00:47:00;14.80;99.90
18160;DHT22;9205;52.032;4.314;2022-10-29T00:49:38;14.90;99.90
18160;DHT22;9205;52.032;4.314;2022-10-29T00:52:08;14.70;99.90
18160;DHT22;9205;52.032;4.314;2022-10-29T00:54:39;15.00;99.90
18160;DHT22;9205;52.032;4.314;2022-10-29T00:57:11;14.90;99.90
18160;DHT22;9205;52.032;4.314;2022-10-29T00:59:41;14.70;99.90
18160;DHT22;9205;52.032;4.314;2022-10-29T01:02:10;14.70;99.90
18160;DHT22;9205;52.032;4.314;2022-10-29T01:04:38;14.80;99.90
18160;DHT22;9205;52.032;4.314;2022-10-29T01:07:06;14.70;99.90
18160;DHT22;9205;52.032;4.314;2022-10-29T01:09:34;14.60;99.90
18160;DHT22;9205;52.032;4.314;2022-10-29T01:12:20;14.80;99.90
18160;DHT22;9205;52.032;4.314;2022-10-29T01:15:06;14.60;99.90
18160;DHT22;9205;52.032;4.314;2022-10-29T01:17:47;14.60;99.90
18160;DHT22;9205;52.032;4.314;2022-10-29T01:20:40;14.60;99.90
18160;DHT22;9205;52.032;4.314;2022-10-29T01:23:42;14.50;99.90
18160;DHT22;9205;52.032;4.314;2022-10-29T01:27:00;14.60;99.90
18160;DHT22;9205;52.032;4.314;2022-10-29T01:29:54;14.60;99.90
18160;DHT22;9205;52.032;4.314;2022-10-29T01:32:39;14.70;99.90
18160;DHT22;9205;52.032;4.314;2022-10-29T01:35:24;14.80;99.90
18160;DHT22;9205;52.032;4.314;2022-10-29T01:38:07;14.60;99.90
18160;DHT22;9205;52.032;4.314;2022-10-29T01:40:46;14.60;99.90
18160;DHT22;9205;52.032;4.314;2022-10-29T01:43:24;14.70;99.90
18160;DHT22;9205;52.032;4.314;2022-10-29T01:46:03;14.70;99.90
18160;DHT22;9205;52.032;4.314;2022-10-29T01:48:38;14.50;99.90
18160;DHT22;9205;52.032;4.314;2022-10-29T01:51:15;14.50;99.90
18160;DHT22;9205;52.032;4.314;2022-10-29T01:53:47;14.50;99.90
18160;DHT22;9205;52.032;4.314;2022-10-29T01:56:14;14.40;99.90
18160;DHT22;9205;52.032;4.314;2022-10-29T01:58:43;14.50;99.90
18160;DHT22;9205;52.032;4.314;2022-10-29T02:01:29;14.60;99.90
18160;DHT22;9205;52.032;4.314;2022-10-29T02:04:24;14.60;99.90
18160;DHT22;9205;52.032;4.314;2022-10-29T02:07:05;14.40;99.90
18160;DHT22;9205;52.032;4.314;2022-10-29T02:09:47;14.30;99.90
18160;DHT22;9205;52.032;4.314;2022-10-29T02:12:24;14.40;99.90
18160;DHT22;9205;52.032;4.314;2022-10-29T02:14:58;14.40;99.90
18160;DHT22;9205;52.032;4.314;2022-10-29T02:17:30;14.50;99.90
18160;DHT22;9205;52.032;4.314;2022-10-29T02:20:02;14.70;99.90
18160;DHT22;9205;52.032;4.314;2022-10-29T02:22:30;14.70;99.90
18160;DHT22;9205;52.032;4.314;2022-10-29T02:24:58;14.70;99.90
18160;DHT22;9205;52.032;4.314;2022-10-29T02:27:25;14.60;99.90
18160;DHT22;9205;52.032;4.314;2022-10-29T02:29:52;14.80;99.90
18160;DHT22;9205;52.032;4.314;2022-10-29T02:32:20;14.70;99.90
18160;DHT22;9205;52.032;4.314;2022-10-29T02:34:47;14.70;99.90
18160;DHT22;9205;52.032;4.314;2022-10-29T02:37:16;14.70;99.90
18160;DHT22;9205;52.032;4.314;2022-10-29T02:39:43;14.50;99.90
18160;DHT22;9205;52.032;4.314;2022-10-29T02:42:10;14.60;99.90
18160;DHT22;9205;52.032;4.314;2022-10-29T02:44:38;14.70;99.90
18160;DHT22;9205;52.032;4.314;2022-10-29T02:47:05;14.80;99.90
18160;DHT22;9205;52.032;4.314;2022-10-29T02:49:32;14.60;99.90
18160;DHT22;9205;52.032;4.314;2022-10-29T02:51:59;14.70;99.90
18160;DHT22;9205;52.032;4.314;2022-10-29T02:54:28;14.60;99.90
18160;DHT22;9205;52.032;4.314;2022-10-29T02:56:56;14.50;99.90
18160;DHT22;9205;52.032;4.314;2022-10-29T02:59:23;14.60;99.90
18160;DHT22;9205;52.032;4.314;2022-10-29T03:01:50;14.60;99.90
18160;DHT22;9205;52.032;4.314;2022-10-29T03:04:17;14.70;99.90
18160;DHT22;9205;52.032;4.314;2022-10-29T03:06:45;14.70;99.90
18160;DHT22;9205;52.032;4.314;2022-10-29T03:09:12;14.60;99.90
18160;DHT22;9205;52.032;4.314;2022-10-29T03:11:41;14.60;99.90
18160;DHT22;9205;52.032;4.314;2022-10-29T03:14:08;14.50;99.90
18160;DHT22;9205;52.032;4.314;2022-10-29T03:16:35;14.80;99.90
18160;DHT22;9205;52.032;4.314;2022-10-29T03:19:03;14.80;99.90
18160;DHT22;9205;52.032;4.314;2022-10-29T03:21:30;14.60;99.90
18160;DHT22;9205;52.032;4.314;2022-10-29T03:23:57;14.80;99.90
18160;DHT22;9205;52.032;4.314;2022-10-29T03:26:25;14.70;99.90
18160;DHT22;9205;52.032;4.314;2022-10-29T03:28:54;14.60;99.90
18160;DHT22;9205;52.032;4.314;2022-10-29T03:31:22;14.80;99.90
18160;DHT22;9205;52.032;4.314;2022-10-29T03:33:49;14.60;99.90
18160;DHT22;9205;52.032;4.314;2022-10-29T03:36:16;14.70;99.90
18160;DHT22;9205;52.032;4.314;2022-10-29T03:38:43;14.60;99.90
18160;DHT22;9205;52.032;4.314;2022-10-29T03:41:10;14.60;99.90
18160;DHT22;9205;52.032;4.314;2022-10-29T03:43:38;14.70;99.90
18160;DHT22;9205;52.032;4.314;2022-10-29T03:46:07;14.50;99.90
18160;DHT22;9205;52.032;4.314;2022-10-29T03:48:34;14.60;99.90
18160;DHT22;9205;52.032;4.314;2022-10-29T03:51:03;14.60;99.90
18160;DHT22;9205;52.032;4.314;2022-10-29T03:53:33;14.50;99.90
18160;DHT22;9205;52.032;4.314;2022-10-29T03:56:02;14.70;99.90
18160;DHT22;9205;52.032;4.314;2022-10-29T03:58:29;14.50;99.90
18160;DHT22;9205;52.032;4.314;2022-10-29T04:00:58;14.60;99.90
18160;DHT22;9205;52.032;4.314;2022-10-29T04:03:29;14.80;99.90
18160;DHT22;9205;52.032;4.314;2022-10-29T04:05:59;14.80;99.90
18160;DHT22;9205;52.032;4.314;2022-10-29T04:08:27;14.80;99.90
18160;DHT22;9205;52.032;4.314;2022-10-29T04:10:55;14.70;99.90
18160;DHT22;9205;52.032;4.314;2022-10-29T04:13:22;14.60;99.90
18160;DHT22;9205;52.032;4.314;2022-10-29T04:15:52;14.90;99.90
18160;DHT22;9205;52.032;4.314;2022-10-29T04:18:20;14.80;99.90
18160;DHT22;9205;52.032;4.314;2022-10-29T04:20:49;14.70;99.90
18160;DHT22;9205;52.032;4.314;2022-10-29T04:23:16;14.90;99.90
18160;DHT22;9205;52.032;4.314;2022-10-29T04:25:53;14.70;99.90
18160;DHT22;9205;52.032;4.314;2022-10-29T04:28:22;14.70;99.90
18160;DHT22;9205;52.032;4.314;2022-10-29T04:30:49;14.90;99.90
18160;DHT22;9205;52.032;4.314;2022-10-29T04:33:17;14.80;99.90
18160;DHT22;9205;52.032;4.314;2022-10-29T04:35:52;14.70;99.90
18160;DHT22;9205;52.032;4.314;2022-10-29T04:38:20;14.90;99.90
18160;DHT22;9205;52.032;4.314;2022-10-29T04:40:48;15.00;99.90
18160;DHT22;9205;52.032;4.314;2022-10-29T04:43:15;15.00;99.90
18160;DHT22;9205;52.032;4.314;2022-10-29T04:45:49;15.00;99.90
18160;DHT22;9205;52.032;4.314;2022-10-29T04:48:17;14.80;99.90
18160;DHT22;9205;52.032;4.314;2022-10-29T04:50:44;14.70;99.90
18160;DHT22;9205;52.032;4.314;2022-10-29T04:53:13;14.70;99.90
18160;DHT22;9205;52.032;4.314;2022-10-29T04:55:41;14.90;99.90
18160;DHT22;9205;52.032;4.314;2022-10-29T04:58:12;14.80;99.90
18160;DHT22;9205;52.032;4.314;2022-10-29T05:00:41;14.90;99.90
18160;DHT22;9205;52.032;4.314;2022-10-29T05:03:09;14.80;99.90
18160;DHT22;9205;52.032;4.314;2022-10-29T05:05:37;14.80;99.90
18160;DHT22;9205;52.032;4.314;2022-10-29T05:08:06;15.00;99.90
18160;DHT22;9205;52.032;4.314;2022-10-29T05:10:37;14.70;99.90
18160;DHT22;9205;52.032;4.314;2022-10-29T05:13:07;14.80;99.90
18160;DHT22;9205;52.032;4.314;2022-10-29T05:15:36;15.00;99.90
18160;DHT22;9205;52.032;4.314;2022-10-29T05:18:04;14.80;99.90
18160;DHT22;9205;52.032;4.314;2022-10-29T05:20:32;14.90;99.90
18160;DHT22;9205;52.032;4.314;2022-10-29T05:23:00;14.80;99.90
18160;DHT22;9205;52.032;4.314;2022-10-29T05:25:31;14.80;99.90
18160;DHT22;9205;52.032;4.314;2022-10-29T05:28:03;15.00;99.90
18160;DHT22;9205;52.032;4.314;2022-10-29T05:30:33;15.00;99.90
18160;DHT22;9205;52.032;4.314;2022-10-29T05:33:01;15.10;99.90
18160;DHT22;9205;52.032;4.314;2022-10-29T05:35:31;15.00;99.90
18160;DHT22;9205;52.032;4.314;2022-10-29T05:37:58;15.10;99.90
18160;DHT22;9205;52.032;4.314;2022-10-29T05:40:25;14.80;99.90
18160;DHT22;9205;52.032;4.314;2022-10-29T05:42:53;14.90;99.90
18160;DHT22;9205;52.032;4.314;2022-10-29T05:45:21;14.90;99.90
18160;DHT22;9205;52.032;4.314;2022-10-29T05:47:54;14.80;99.90
18160;DHT22;9205;52.032;4.314;2022-10-29T05:50:22;14.80;99.90
18160;DHT22;9205;52.032;4.314;2022-10-29T05:52:54;15.00;99.90
18160;DHT22;9205;52.032;4.314;2022-10-29T05:55:22;15.00;99.90
18160;DHT22;9205;52.032;4.314;2022-10-29T05:57:54;14.90;99.90
18160;DHT22;9205;52.032;4.314;2022-10-29T06:00:24;15.00;99.90
18160;DHT22;9205;52.032;4.314;2022-10-29T06:02:53;15.00;99.90
18160;DHT22;9205;52.032;4.314;2022-10-29T06:05:20;14.80;99.90
18160;DHT22;9205;52.032;4.314;2022-10-29T06:07:52;15.00;99.90
18160;DHT22;9205;52.032;4.314;2022-10-29T06:10:21;14.70;99.90
18160;DHT22;9205;52.032;4.314;2022-10-29T06:12:48;14.80;99.90
18160;DHT22;9205;52.032;4.314;2022-10-29T06:15:16;15.00;99.90
18160;DHT22;9205;52.032;4.314;2022-10-29T06:17:45;14.70;99.90
18160;DHT22;9205;52.032;4.314;2022-10-29T06:20:14;14.80;99.90
18160;DHT22;9205;52.032;4.314;2022-10-29T06:22:45;14.90;99.90
18160;DHT22;9205;52.032;4.314;2022-10-29T06:25:12;15.00;99.90
18160;DHT22;9205;52.032;4.314;2022-10-29T06:27:40;15.00;99.90
18160;DHT22;9205;52.032;4.314;2022-10-29T06:30:08;14.80;99.90
18160;DHT22;9205;52.032;4.314;2022-10-29T06:32:36;14.80;99.90
18160;DHT22;9205;52.032;4.314;2022-10-29T06:35:05;15.10;99.90
18160;DHT22;9205;52.032;4.314;2022-10-29T06:37:36;15.00;99.90
18160;DHT22;9205;52.032;4.314;2022-10-29T06:40:05;14.80;99.90
18160;DHT22;9205;52.032;4.314;2022-10-29T06:42:32;15.10;99.90
18160;DHT22;9205;52.032;4.314;2022-10-29T06:45:00;14.90;99.90
18160;DHT22;9205;52.032;4.314;2022-10-29T06:47:27;15.10;99.90
18160;DHT22;9205;52.032;4.314;2022-10-29T06:49:54;15.10;99.90
18160;DHT22;9205;52.032;4.314;2022-10-29T06:52:23;15.20;99.90
18160;DHT22;9205;52.032;4.314;2022-10-29T06:54:50;15.20;99.90
18160;DHT22;9205;52.032;4.314;2022-10-29T06:57:17;15.00;99.90
18160;DHT22;9205;52.032;4.314;2022-10-29T06:59:46;15.20;99.90
18160;DHT22;9205;52.032;4.314;2022-10-29T07:02:14;15.20;99.90
18160;DHT22;9205;52.032;4.314;2022-10-29T07:04:41;15.10;99.90
18160;DHT22;9205;52.032;4.314;2022-10-29T07:07:10;15.20;99.90
18160;DHT22;9205;52.032;4.314;2022-10-29T07:09:38;15.00;99.90
18160;DHT22;9205;52.032;4.314;2022-10-29T07:12:07;15.30;99.90
18160;DHT22;9205;52.032;4.314;2022-10-29T07:14:36;15.20;99.90
18160;DHT22;9205;52.032;4.314;2022-10-29T07:17:03;15.30;99.90
18160;DHT22;9205;52.032;4.314;2022-10-29T07:19:30;15.40;99.90
18160;DHT22;9205;52.032;4.314;2022-10-29T07:21:57;15.20;99.90
18160;DHT22;9205;52.032;4.314;2022-10-29T07:24:24;15.50;99.90
18160;DHT22;9205;52.032;4.314;2022-10-29T07:26:53;15.50;99.90
18160;DHT22;9205;52.032;4.314;2022-10-29T07:29:20;15.50;99.90
18160;DHT22;9205;52.032;4.314;2022-10-29T07:31:48;15.40;99.90
18160;DHT22;9205;52.032;4.314;2022-10-29T07:34:15;15.40;99.90
18160;DHT22;9205;52.032;4.314;2022-10-29T07:36:42;15.70;99.90
18160;DHT22;9205;52.032;4.314;2022-10-29T07:39:09;15.70;99.90
18160;DHT22;9205;52.032;4.314;2022-10-29T07:41:37;15.50;99.90
18160;DHT22;9205;52.032;4.314;2022-10-29T07:44:08;15.70;99.90
18160;DHT22;9205;52.032;4.314;2022-10-29T07:46:35;15.70;99.90
18160;DHT22;9205;52.032;4.314;2022-10-29T07:49:02;15.80;99.90
18160;DHT22;9205;52.032;4.314;2022-10-29T07:51:30;15.70;99.90
18160;DHT22;9205;52.032;4.314;2022-10-29T07:53:57;15.70;99.90
18160;DHT22;9205;52.032;4.314;2022-10-29T07:56:24;15.90;99.90
18160;DHT22;9205;52.032;4.314;2022-10-29T07:58:52;15.70;99.90
18160;DHT22;9205;52.032;4.314;2022-10-29T08:01:20;16.00;99.90
18160;DHT22;9205;52.032;4.314;2022-10-29T08:03:48;15.80;99.90
18160;DHT22;9205;52.032;4.314;2022-10-29T08:06:16;16.20;99.90
18160;DHT22;9205;52.032;4.314;2022-10-29T08:08:43;16.10;99.90
18160;DHT22;9205;52.032;4.314;2022-10-29T08:11:11;15.90;99.90
18160;DHT22;9205;52.032;4.314;2022-10-29T08:13:38;15.90;99.90
18160;DHT22;9205;52.032;4.314;2022-10-29T08:16:06;16.10;99.90
18160;DHT22;9205;52.032;4.314;2022-10-29T08:18:35;15.80;99.90
18160;DHT22;9205;52.032;4.314;2022-10-29T08:21:03;16.00;99.90
18160;DHT22;9205;52.032;4.314;2022-10-29T08:23:31;16.00;99.90
18160;DHT22;9205;52.032;4.314;2022-10-29T08:25:58;16.10;99.90
18160;DHT22;9205;52.032;4.314;2022-10-29T08:28:26;16.20;99.90
18160;DHT22;9205;52.032;4.314;2022-10-29T08:30:53;16.10;99.90
18160;DHT22;9205;52.032;4.314;2022-10-29T08:33:20;16.20;99.90
18160;DHT22;9205;52.032;4.314;2022-10-29T08:35:49;16.00;99.90
18160;DHT22;9205;52.032;4.314;2022-10-29T08:38:17;16.40;99.90
18160;DHT22;9205;52.032;4.314;2022-10-29T08:40:58;16.10;99.90
18160;DHT22;9205;52.032;4.314;2022-10-29T08:43:51;16.30;99.90
18160;DHT22;9205;52.032;4.314;2022-10-29T08:46:42;16.60;99.90
18160;DHT22;9205;52.032;4.314;2022-10-29T08:49:17;16.30;99.90
18160;DHT22;9205;52.032;4.314;2022-10-29T08:51:54;16.50;99.90
18160;DHT22;9205;52.032;4.314;2022-10-29T08:54:29;16.40;99.90
18160;DHT22;9205;52.032;4.314;2022-10-29T08:57:03;16.50;99.90
18160;DHT22;9205;52.032;4.314;2022-10-29T08:59:41;16.60;99.90
18160;DHT22;9205;52.032;4.314;2022-10-29T09:02:16;16.60;99.90
18160;DHT22;9205;52.032;4.314;2022-10-29T09:04:46;16.90;99.90
18160;DHT22;9205;52.032;4.314;2022-10-29T09:07:28;16.90;99.90
18160;DHT22;9205;52.032;4.314;2022-10-29T09:10:11;16.90;99.90
18160;DHT22;9205;52.032;4.314;2022-10-29T09:12:58;16.80;99.90
18160;DHT22;9205;52.032;4.314;2022-10-29T09:15:52;16.70;99.90
18160;DHT22;9205;52.032;4.314;2022-10-29T09:18:39;16.80;99.90
18160;DHT22;9205;52.032;4.314;2022-10-29T09:21:28;17.00;99.90
18160;DHT22;9205;52.032;4.314;2022-10-29T09:24:12;16.90;99.90
18160;DHT22;9205;52.032;4.314;2022-10-29T09:26:55;17.00;99.90
18160;DHT22;9205;52.032;4.314;2022-10-29T09:29:32;17.20;99.90
18160;DHT22;9205;52.032;4.314;2022-10-29T09:32:12;16.90;99.90
18160;DHT22;9205;52.032;4.314;2022-10-29T09:34:46;17.30;99.90
18160;DHT22;9205;52.032;4.314;2022-10-29T09:37:20;17.30;99.90
18160;DHT22;9205;52.032;4.314;2022-10-29T09:39:53;17.30;99.90
18160;DHT22;9205;52.032;4.314;2022-10-29T09:42:33;17.30;99.90
18160;DHT22;9205;52.032;4.314;2022-10-29T09:45:06;17.00;99.90
18160;DHT22;9205;52.032;4.314;2022-10-29T09:47:46;17.30;99.90
18160;DHT22;9205;52.032;4.314;2022-10-29T09:50:25;17.50;99.90
18160;DHT22;9205;52.032;4.314;2022-10-29T09:52:59;17.10;99.90
18160;DHT22;9205;52.032;4.314;2022-10-29T09:55:30;17.30;99.90
18160;DHT22;9205;52.032;4.314;2022-10-29T09:58:04;17.40;99.90
18160;DHT22;9205;52.032;4.314;2022-10-29T10:00:33;17.60;99.90
18160;DHT22;9205;52.032;4.314;2022-10-29T10:03:03;17.60;99.90
18160;DHT22;9205;52.032;4.314;2022-10-29T10:05:56;17.80;99.90
18160;DHT22;9205;52.032;4.314;2022-10-29T10:08:25;17.80;99.90
18160;DHT22;9205;52.032;4.314;2022-10-29T10:10:56;17.90;99.90
18160;DHT22;9205;52.032;4.314;2022-10-29T10:13:27;17.80;99.90
18160;DHT22;9205;52.032;4.314;2022-10-29T10:15:57;17.90;99.90
18160;DHT22;9205;52.032;4.314;2022-10-29T10:18:27;17.70;99.90
18160;DHT22;9205;52.032;4.314;2022-10-29T10:21:07;17.80;99.90
18160;DHT22;9205;52.032;4.314;2022-10-29T10:23:42;17.90;99.90
18160;DHT22;9205;52.032;4.314;2022-10-29T10:26:35;18.40;99.90
18160;DHT22;9205;52.032;4.314;2022-10-29T10:29:15;18.40;99.90
18160;DHT22;9205;52.032;4.314;2022-10-29T10:31:44;18.20;99.90
18160;DHT22;9205;52.032;4.314;2022-10-29T10:34:17;18.30;99.90
18160;DHT22;9205;52.032;4.314;2022-10-29T10:36:49;18.60;99.90
18160;DHT22;9205;52.032;4.314;2022-10-29T10:39:24;18.60;99.90
18160;DHT22;9205;52.032;4.314;2022-10-29T10:41:57;18.60;99.90
18160;DHT22;9205;52.032;4.314;2022-10-29T10:44:26;18.80;99.90
18160;DHT22;9205;52.032;4.314;2022-10-29T10:46:57;18.50;99.90
18160;DHT22;9205;52.032;4.314;2022-10-29T10:49:33;18.70;99.90
18160;DHT22;9205;52.032;4.314;2022-10-29T10:52:04;18.60;99.90
18160;DHT22;9205;52.032;4.314;2022-10-29T10:54:44;18.80;99.90
18160;DHT22;9205;52.032;4.314;2022-10-29T10:57:23;19.00;99.90
18160;DHT22;9205;52.032;4.314;2022-10-29T11:00:00;18.80;99.90
18160;DHT22;9205;52.032;4.314;2022-10-29T11:02:35;18.90;99.90
18160;DHT22;9205;52.032;4.314;2022-10-29T11:05:16;18.70;99.90
18160;DHT22;9205;52.032;4.314;2022-10-29T11:07:48;18.90;99.90
18160;DHT22;9205;52.032;4.314;2022-10-29T11:10:26;18.90;99.90
18160;DHT22;9205;52.032;4.314;2022-10-29T11:13:05;18.70;99.90
18160;DHT22;9205;52.032;4.314;2022-10-29T11:15:40;18.80;99.90
18160;DHT22;9205;52.032;4.314;2022-10-29T11:18:17;18.90;99.90
18160;DHT22;9205;52.032;4.314;2022-10-29T11:20:54;19.10;99.90
18160;DHT22;9205;52.032;4.314;2022-10-29T11:23:38;19.10;99.90
18160;DHT22;9205;52.032;4.314;2022-10-29T11:26:16;19.00;99.90
18160;DHT22;9205;52.032;4.314;2022-10-29T11:28:53;19.10;99.90
18160;DHT22;9205;52.032;4.314;2022-10-29T11:31:28;19.30;99.90
18160;DHT22;9205;52.032;4.314;2022-10-29T11:34:09;19.00;99.90
18160;DHT22;9205;52.032;4.314;2022-10-29T11:36:44;19.40;99.90
18160;DHT22;9205;52.032;4.314;2022-10-29T11:39:21;19.20;99.90
18160;DHT22;9205;52.032;4.314;2022-10-29T11:41:56;19.20;99.90
18160;DHT22;9205;52.032;4.314;2022-10-29T11:44:27;19.40;99.90
18160;DHT22;9205;52.032;4.314;2022-10-29T11:47:08;19.30;99.90
18160;DHT22;9205;52.032;4.314;2022-10-29T11:50:01;19.50;99.90
18160;DHT22;9205;52.032;4.314;2022-10-29T11:52:44;19.80;99.90
18160;DHT22;9205;52.032;4.314;2022-10-29T11:55:22;19.90;99.90
18160;DHT22;9205;52.032;4.314;2022-10-29T11:57:59;19.80;99.90
18160;DHT22;9205;52.032;4.314;2022-10-29T12:00:37;19.70;99.90
18160;DHT22;9205;52.032;4.314;2022-10-29T12:03:29;20.00;99.90
18160;DHT22;9205;52.032;4.314;2022-10-29T12:06:17;20.00;99.90
18160;DHT22;9205;52.032;4.314;2022-10-29T12:08:58;20.40;99.90
18160;DHT22;9205;52.032;4.314;2022-10-29T12:11:39;20.30;99.90
18160;DHT22;9205;52.032;4.314;2022-10-29T12:14:19;20.40;99.90
18160;DHT22;9205;52.032;4.314;2022-10-29T12:17:01;20.50;99.90
18160;DHT22;9205;52.032;4.314;2022-10-29T12:19:43;20.60;99.90
18160;DHT22;9205;52.032;4.314;2022-10-29T12:22:23;20.60;99.90
18160;DHT22;9205;52.032;4.314;2022-10-29T12:28:07;20.60;99.90
18160;DHT22;9205;52.032;4.314;2022-10-29T12:30:59;20.60;99.90
18160;DHT22;9205;52.032;4.314;2022-10-29T12:33:41;20.60;99.90
18160;DHT22;9205;52.032;4.314;2022-10-29T12:36:21;20.80;99.90
18160;DHT22;9205;52.032;4.314;2022-10-29T12:38:56;20.80;99.90
18160;DHT22;9205;52.032;4.314;2022-10-29T12:41:30;20.80;99.90
18160;DHT22;9205;52.032;4.314;2022-10-29T12:44:08;20.80;99.90
18160;DHT22;9205;52.032;4.314;2022-10-29T12:46:45;20.80;99.90
18160;DHT22;9205;52.032;4.314;2022-10-29T12:49:36;20.80;99.90
18160;DHT22;9205;52.032;4.314;2022-10-29T12:52:17;20.90;99.90
18160;DHT22;9205;52.032;4.314;2022-10-29T12:54:50;21.00;99.90
18160;DHT22;9205;52.032;4.314;2022-10-29T12:57:30;21.10;99.90
18160;DHT22;9205;52.032;4.314;2022-10-29T13:06:45;21.00;99.90
18160;DHT22;9205;52.032;4.314;2022-10-29T13:09:18;20.90;99.90
18160;DHT22;9205;52.032;4.314;2022-10-29T13:11:49;21.00;99.90
18160;DHT22;9205;52.032;4.314;2022-10-29T13:14:24;21.00;99.90
18160;DHT22;9205;52.032;4.314;2022-10-29T13:16:58;20.90;99.90
18160;DHT22;9205;52.032;4.314;2022-10-29T13:19:36;20.80;99.90
18160;DHT22;9205;52.032;4.314;2022-10-29T13:22:51;20.90;99.90
18160;DHT22;9205;52.032;4.314;2022-10-29T13:25:43;20.80;99.90
18160;DHT22;9205;52.032;4.314;2022-10-29T13:28:50;20.70;99.90
18160;DHT22;9205;52.032;4.314;2022-10-29T13:31:44;20.70;99.90
18160;DHT22;9205;52.032;4.314;2022-10-29T13:34:48;20.80;99.90
18160;DHT22;9205;52.032;4.314;2022-10-29T13:43:53;20.60;99.90
18160;DHT22;9205;52.032;4.314;2022-10-29T13:46:42;20.60;99.90
18160;DHT22;9205;52.032;4.314;2022-10-29T13:49:16;20.70;99.90
18160;DHT22;9205;52.032;4.314;2022-10-29T13:51:53;20.40;99.90
18160;DHT22;9205;52.032;4.314;2022-10-29T13:54:34;20.50;99.90
18160;DHT22;9205;52.032;4.314;2022-10-29T13:57:17;20.50;99.90
18160;DHT22;9205;52.032;4.314;2022-10-29T13:59:49;20.60;99.90
18160;DHT22;9205;52.032;4.314;2022-10-29T14:02:37;20.50;99.90
18160;DHT22;9205;52.032;4.314;2022-10-29T14:05:20;20.60;99.90
18160;DHT22;9205;52.032;4.314;2022-10-29T14:07:53;20.50;99.90
18160;DHT22;9205;52.032;4.314;2022-10-29T14:10:27;20.60;99.90
18160;DHT22;9205;52.032;4.314;2022-10-29T14:13:00;20.70;99.90
18160;DHT22;9205;52.032;4.314;2022-10-29T14:15:36;20.50;99.90
18160;DHT22;9205;52.032;4.314;2022-10-29T14:18:17;20.60;99.90
18160;DHT22;9205;52.032;4.314;2022-10-29T14:20:53;20.70;99.90
18160;DHT22;9205;52.032;4.314;2022-10-29T14:23:21;20.70;99.90
18160;DHT22;9205;52.032;4.314;2022-10-29T14:25:52;20.60;99.90
18160;DHT22;9205;52.032;4.314;2022-10-29T14:28:24;20.60;99.90
18160;DHT22;9205;52.032;4.314;2022-10-29T14:31:03;20.50;99.90
18160;DHT22;9205;52.032;4.314;2022-10-29T14:33:33;20.60;99.90
18160;DHT22;9205;52.032;4.314;2022-10-29T14:36:08;20.60;99.90
18160;DHT22;9205;52.032;4.314;2022-10-29T14:38:44;20.60;99.90
18160;DHT22;9205;52.032;4.314;2022-10-29T14:41:16;20.50;99.90
18160;DHT22;9205;52.032;4.314;2022-10-29T14:43:51;20.60;99.90
18160;DHT22;9205;52.032;4.314;2022-10-29T14:46:24;20.30;99.90
18160;DHT22;9205;52.032;4.314;2022-10-29T14:49:03;20.60;99.90
18160;DHT22;9205;52.032;4.314;2022-10-29T14:51:39;20.50;99.90
18160;DHT22;9205;52.032;4.314;2022-10-29T14:54:17;20.40;99.90
18160;DHT22;9205;52.032;4.314;2022-10-29T14:56:54;20.40;99.90
18160;DHT22;9205;52.032;4.314;2022-10-29T14:59:27;20.30;99.90
18160;DHT22;9205;52.032;4.314;2022-10-29T15:01:58;20.40;99.90
18160;DHT22;9205;52.032;4.314;2022-10-29T15:04:29;20.20;99.90
18160;DHT22;9205;52.032;4.314;2022-10-29T15:07:13;20.40;99.90
18160;DHT22;9205;52.032;4.314;2022-10-29T15:09:44;20.40;99.90
18160;DHT22;9205;52.032;4.314;2022-10-29T15:12:20;20.20;99.90
18160;DHT22;9205;52.032;4.314;2022-10-29T15:14:51;20.30;99.90
18160;DHT22;9205;52.032;4.314;2022-10-29T15:17:21;20.30;99.90
18160;DHT22;9205;52.032;4.314;2022-10-29T15:19:53;20.10;99.90
18160;DHT22;9205;52.032;4.314;2022-10-29T15:22:28;20.30;99.90
18160;DHT22;9205;52.032;4.314;2022-10-29T15:24:59;20.20;99.90
18160;DHT22;9205;52.032;4.314;2022-10-29T15:27:29;20.20;99.90
18160;DHT22;9205;52.032;4.314;2022-10-29T15:29:56;20.20;99.90
18160;DHT22;9205;52.032;4.314;2022-10-29T15:32:26;20.10;99.90
18160;DHT22;9205;52.032;4.314;2022-10-29T15:34:55;20.10;99.90
18160;DHT22;9205;52.032;4.314;2022-10-29T15:37:39;20.10;99.90
18160;DHT22;9205;52.032;4.314;2022-10-29T15:40:10;20.20;99.90
18160;DHT22;9205;52.032;4.314;2022-10-29T15:42:41;20.10;99.90
18160;DHT22;9205;52.032;4.314;2022-10-29T15:45:23;20.20;99.90
18160;DHT22;9205;52.032;4.314;2022-10-29T15:47:54;19.90;99.90
18160;DHT22;9205;52.032;4.314;2022-10-29T15:50:25;19.90;99.90
18160;DHT22;9205;52.032;4.314;2022-10-29T15:53:03;20.00;99.90
18160;DHT22;9205;52.032;4.314;2022-10-29T15:55:31;20.00;99.90
18160;DHT22;9205;52.032;4.314;2022-10-29T15:58:03;19.80;99.90
18160;DHT22;9205;52.032;4.314;2022-10-29T16:00:34;19.90;99.90
18160;DHT22;9205;52.032;4.314;2022-10-29T16:03:12;19.80;99.90
18160;DHT22;9205;52.032;4.314;2022-10-29T16:05:44;19.70;99.90
18160;DHT22;9205;52.032;4.314;2022-10-29T16:08:22;19.70;99.90
18160;DHT22;9205;52.032;4.314;2022-10-29T16:10:52;19.90;99.90
18160;DHT22;9205;52.032;4.314;2022-10-29T16:13:22;19.70;99.90
18160;DHT22;9205;52.032;4.314;2022-10-29T16:15:50;19.70;99.90
18160;DHT22;9205;52.032;4.314;2022-10-29T16:18:18;19.60;99.90
18160;DHT22;9205;52.032;4.314;2022-10-29T16:20:45;19.60;99.90
18160;DHT22;9205;52.032;4.314;2022-10-29T16:23:14;19.60;99.90
18160;DHT22;9205;52.032;4.314;2022-10-29T16:25:41;19.60;99.90
18160;DHT22;9205;52.032;4.314;2022-10-29T16:28:09;19.60;99.90
18160;DHT22;9205;52.032;4.314;2022-10-29T16:30:38;19.70;99.90
18160;DHT22;9205;52.032;4.314;2022-10-29T16:33:07;19.50;99.90
18160;DHT22;9205;52.032;4.314;2022-10-29T16:35:36;19.40;99.90
18160;DHT22;9205;52.032;4.314;2022-10-29T16:38:05;19.40;99.90
18160;DHT22;9205;52.032;4.314;2022-10-29T16:40:33;19.40;99.90